Time;durP1;ratioP1;P1;durP2;ratioP2;P2;SDS_P1;SDS_P2;PMS_P1;PMS_P2;Temp;Humidity;BMP_temperature;BMP_pressure;BME280_temperature;BME280_humidity;BME280_pressure;Samples;Min_cycle;Max_cycle;Signal;HPM_P1;HPM_P2
2022/08/06 00:02:10;;;;;;;9.15;6.05;;;28.80;86.60;;;;;;5051587;28;20105;-74
2022/08/06 00:04:38;;;;;;;10.45;6.45;;;28.80;86.20;;;;;;5057823;28;20123;-73
2022/08/06 00:07:06;;;;;;;5.75;5.15;;;28.70;85.90;;;;;;5031331;28;20051;-75
2022/08/06 00:09:33;;;;;;;6.32;5.63;;;28.80;85.90;;;;;;5090743;28;20452;-73
2022/08/06 00:12:03;;;;;;;6.90;6.15;;;28.80;85.70;;;;;;5091664;28;20513;-74
2022/08/06 00:14:32;;;;;;;8.30;5.82;;;28.70;85.20;;;;;;5061889;28;20052;-74
2022/08/06 00:17:00;;;;;;;10.48;6.38;;;28.80;84.80;;;;;;5039605;28;20052;-73
2022/08/06 00:19:28;;;;;;;8.63;5.97;;;28.80;84.50;;;;;;5069840;28;20048;-75
2022/08/06 00:21:56;;;;;;;6.43;5.80;;;28.70;83.90;;;;;;5074532;28;20036;-74
2022/08/06 00:24:24;;;;;;;7.13;6.20;;;28.70;83.30;;;;;;5053378;28;20051;-73
2022/08/06 00:26:51;;;;;;;8.45;6.53;;;28.70;82.90;;;;;;5052416;28;20052;-73
2022/08/06 00:29:19;;;;;;;9.48;6.40;;;28.70;82.60;;;;;;5072684;28;20498;-75
2022/08/06 00:31:47;;;;;;;7.30;5.72;;;28.70;82.20;;;;;;5074704;28;20172;-73
2022/08/06 00:34:15;;;;;;;9.77;6.38;;;28.70;81.90;;;;;;5044807;28;20044;-73
2022/08/06 00:36:42;;;;;;;8.43;6.35;;;28.70;81.80;;;;;;5055360;28;20460;-74
2022/08/06 00:39:10;;;;;;;8.57;6.68;;;28.70;81.80;;;;;;5088519;28;20428;-75
2022/08/06 00:41:38;;;;;;;10.45;6.70;;;28.70;81.80;;;;;;5083743;28;20128;-73
2022/08/06 00:44:06;;;;;;;15.13;6.50;;;28.70;81.30;;;;;;5065049;28;20028;-73
2022/08/06 00:46:36;;;;;;;7.15;5.68;;;28.60;81.50;;;;;;5053298;28;20388;-73
2022/08/06 00:49:04;;;;;;;7.80;6.53;;;28.60;80.80;;;;;;5056244;28;20064;-73
2022/08/06 00:51:34;;;;;;;7.63;6.82;;;28.70;79.80;;;;;;5074348;28;20032;-74
2022/08/06 00:54:02;;;;;;;9.25;6.25;;;28.70;78.80;;;;;;5073970;28;20450;-75
2022/08/06 00:56:30;;;;;;;8.60;6.00;;;28.70;78.50;;;;;;5057244;28;20047;-73
2022/08/06 00:58:59;;;;;;;9.68;5.70;;;28.70;77.80;;;;;;5073174;28;20079;-73
2022/08/06 01:01:27;;;;;;;8.30;5.20;;;28.70;77.20;;;;;;5072802;28;20032;-73
2022/08/06 01:03:55;;;;;;;6.75;6.05;;;28.80;76.70;;;;;;5056293;28;20533;-75
2022/08/06 01:06:23;;;;;;;7.35;5.78;;;28.80;76.10;;;;;;5073038;28;20044;-73
2022/08/06 01:08:50;;;;;;;10.45;5.38;;;28.80;75.90;;;;;;5072662;28;20048;-74
2022/08/06 01:11:18;;;;;;;7.78;5.25;;;28.80;75.60;;;;;;5056358;28;20036;-74
2022/08/06 01:13:46;;;;;;;9.52;5.35;;;28.70;75.10;;;;;;5056781;28;20134;-74
2022/08/06 01:16:26;;;;;;;8.52;5.45;;;28.70;75.10;;;;;;5057522;28;20508;-73
2022/08/06 01:19:01;;;;;;;7.25;5.80;;;28.80;74.80;;;;;;5074661;28;20074;-73
2022/08/06 01:21:41;;;;;;;9.40;6.05;;;28.70;74.60;;;;;;5074525;28;20044;-74
2022/08/06 01:24:24;;;;;;;6.55;4.75;;;28.70;74.40;;;;;;5057575;28;20115;-73
2022/08/06 01:27:10;;;;;;;9.10;5.10;;;28.70;74.00;;;;;;5074057;28;20071;-73
2022/08/06 01:29:39;;;;;;;;;;;28.70;74.40;;;;;;5074629;28;20424;-74
2022/08/06 01:32:11;;;;;;;7.13;5.10;;;28.70;73.60;;;;;;5073945;28;19923;-74
2022/08/06 01:34:42;;;;;;;7.47;5.03;;;28.80;73.80;;;;;;5040703;28;20043;-73
2022/08/06 01:37:22;;;;;;;7.75;5.72;;;28.70;73.50;;;;;;5074090;28;20047;-72
2022/08/06 01:39:55;;;;;;;7.38;4.78;;;28.70;73.70;;;;;;5057552;28;20051;-73
2022/08/06 01:42:25;;;;;;;6.57;4.78;;;28.70;73.60;;;;;;5073813;28;20044;-73
2022/08/06 01:44:56;;;;;;;6.78;5.40;;;28.70;73.70;;;;;;5091807;28;20032;-72
2022/08/06 01:47:25;;;;;;;7.00;5.22;;;28.70;73.50;;;;;;5040539;28;20044;-73
2022/08/06 01:49:57;;;;;;;5.95;5.32;;;28.70;72.90;;;;;;5073805;28;20109;-73
2022/08/06 01:52:26;;;;;;;6.60;5.68;;;28.70;72.70;;;;;;5073878;28;20044;-73
2022/08/06 01:54:58;;;;;;;6.95;5.72;;;28.70;72.40;;;;;;5057193;28;20040;-72
2022/08/06 01:57:29;;;;;;;7.82;6.10;;;28.70;72.40;;;;;;5091814;28;20059;-73
2022/08/06 01:59:57;;;;;;;6.97;4.90;;;28.70;72.10;;;;;;5056832;28;20040;-74
2022/08/06 02:02:28;;;;;;;7.43;4.60;;;28.60;71.80;;;;;;5056916;28;20060;-72
2022/08/06 02:05:00;;;;;;;7.00;4.88;;;28.60;71.50;;;;;;5073711;28;20040;-73
2022/08/06 02:07:35;;;;;;;6.63;5.05;;;28.60;71.00;;;;;;5091517;28;20139;-73
2022/08/06 02:10:04;;;;;;;5.57;4.32;;;28.60;70.90;;;;;;5072974;28;20036;-74
2022/08/06 02:12:35;;;;;;;6.15;4.38;;;28.60;70.60;;;;;;5039670;28;20475;-73
2022/08/06 02:15:11;;;;;;;5.45;4.07;;;28.60;70.30;;;;;;5073676;28;20055;-74
2022/08/06 02:17:49;;;;;;;6.50;4.50;;;28.70;70.40;;;;;;5073500;28;20040;-72
2022/08/06 02:20:22;;;;;;;6.13;4.72;;;28.70;70.40;;;;;;5056399;28;20071;-73
2022/08/06 02:22:51;;;;;;;5.22;4.22;;;28.70;69.70;;;;;;5073336;28;20135;-73
2022/08/06 02:25:21;;;;;;;5.60;4.47;;;28.80;69.50;;;;;;5056851;28;20048;-72
2022/08/06 02:27:56;;;;;;;4.87;4.10;;;28.80;70.30;;;;;;5040596;28;20055;-73
2022/08/06 02:30:27;;;;;;;4.30;3.83;;;28.80;69.50;;;;;;5056566;28;20044;-74
2022/08/06 02:32:55;;;;;;;6.78;4.70;;;28.80;69.30;;;;;;5073401;28;20402;-74
2022/08/06 02:35:23;;;;;;;4.88;4.28;;;28.80;69.10;;;;;;5052569;28;20143;-72
2022/08/06 02:37:58;;;;;;;5.38;4.60;;;28.80;68.30;;;;;;5036627;28;20106;-73
2022/08/06 02:40:42;;;;;;;5.53;4.22;;;28.80;68.60;;;;;;5036438;28;20056;-74
2022/08/06 02:43:22;;;;;;;6.22;4.18;;;28.80;67.80;;;;;;5053094;28;20127;-73
2022/08/06 02:45:58;;;;;;;5.10;4.60;;;28.80;68.00;;;;;;5036828;28;20143;-72
2022/08/06 02:48:58;;;;;;;4.40;4.00;;;28.90;67.60;;;;;;5070651;28;20056;-77
2022/08/06 02:51:45;;;;;;;5.88;4.20;;;28.80;67.60;;;;;;5034439;28;20521;-73
2022/08/06 02:54:19;;;;;;;6.30;4.72;;;28.90;68.40;;;;;;5070932;28;20064;-72
2022/08/06 02:56:51;;;;;;;4.82;4.25;;;28.90;67.50;;;;;;5036256;28;20627;-74
2022/08/06 02:59:26;;;;;;;5.45;4.30;;;28.90;67.30;;;;;;5053041;28;20102;-73
2022/08/06 03:01:59;;;;;;;5.55;4.35;;;28.90;67.30;;;;;;5068125;28;20536;-73
2022/08/06 03:04:30;;;;;;;5.15;4.65;;;28.90;67.60;;;;;;5072792;28;20504;-73
2022/08/06 03:07:02;;;;;;;6.13;4.70;;;28.90;67.80;;;;;;5090804;28;20043;-73
2022/08/06 03:09:30;;;;;;;5.90;4.63;;;28.90;68.00;;;;;;5090693;28;20058;-73
2022/08/06 03:11:58;;;;;;;6.28;4.35;;;28.80;68.10;;;;;;5039486;28;20048;-73
2022/08/06 03:14:26;;;;;;;7.38;4.82;;;28.80;68.30;;;;;;5090725;28;20051;-72
2022/08/06 03:16:56;;;;;;;7.03;5.00;;;28.80;68.40;;;;;;5072495;28;20080;-72
2022/08/06 03:19:24;;;;;;;7.07;4.95;;;28.80;68.40;;;;;;5072619;28;20131;-73
2022/08/06 03:21:56;;;;;;;5.13;4.43;;;28.80;68.40;;;;;;5072962;28;20044;-73
2022/08/06 03:24:26;;;;;;;6.00;4.90;;;28.80;68.70;;;;;;5039639;28;20049;-72
2022/08/06 03:26:58;;;;;;;6.93;4.80;;;28.70;68.70;;;;;;5023164;28;20082;-73
2022/08/06 03:29:27;;;;;;;5.40;4.63;;;28.70;68.50;;;;;;5056601;28;20557;-73
2022/08/06 03:31:56;;;;;;;6.55;5.15;;;28.70;68.70;;;;;;5023345;28;20094;-72
2022/08/06 03:34:24;;;;;;;6.22;4.97;;;28.70;68.60;;;;;;5039439;28;20055;-73
2022/08/06 03:36:54;;;;;;;8.45;5.53;;;28.70;68.40;;;;;;5056128;28;20068;-73
2022/08/06 03:39:23;;;;;;;7.88;5.82;;;28.70;68.50;;;;;;5039720;28;20103;-75
2022/08/06 03:41:52;;;;;;;6.07;5.47;;;28.70;68.50;;;;;;5039781;28;20406;-72
2022/08/06 03:44:19;;;;;;;6.03;4.95;;;28.70;68.60;;;;;;5056096;28;20086;-72
2022/08/06 03:46:55;;;;;;;10.93;6.75;;;28.70;68.80;;;;;;5039564;28;20044;-73
2022/08/06 03:49:36;;;;;;;6.05;5.35;;;28.70;68.80;;;;;;5056245;28;20049;-72
2022/08/06 03:52:05;;;;;;;6.78;5.57;;;28.60;69.00;;;;;;5039194;28;20040;-74
2022/08/06 03:54:36;;;;;;;11.10;6.18;;;28.60;69.30;;;;;;5023393;28;20065;-72
2022/08/06 03:57:11;;;;;;;10.05;5.72;;;28.60;69.40;;;;;;5056734;28;20041;-73
2022/08/06 03:59:42;;;;;;;7.75;5.47;;;28.60;69.60;;;;;;5039277;28;20047;-73
2022/08/06 04:02:12;;;;;;;7.07;5.75;;;28.60;69.80;;;;;;5039069;28;20057;-73
2022/08/06 04:04:42;;;;;;;7.63;6.10;;;28.50;69.80;;;;;;5055573;28;20447;-72
2022/08/06 04:07:12;;;;;;;6.95;5.55;;;28.50;69.80;;;;;;5055565;28;20529;-72
2022/08/06 04:09:40;;;;;;;6.25;5.65;;;28.50;69.90;;;;;;5060562;28;20520;-73
2022/08/06 04:12:08;;;;;;;6.40;5.47;;;28.50;69.80;;;;;;5093371;28;20048;-74
2022/08/06 04:14:36;;;;;;;8.50;5.90;;;28.50;70.00;;;;;;5075624;28;20036;-73
2022/08/06 04:17:06;;;;;;;7.97;5.40;;;28.50;70.00;;;;;;5075050;28;20060;-72
2022/08/06 04:19:34;;;;;;;10.65;5.60;;;28.50;70.10;;;;;;5073091;28;20056;-72
2022/08/06 04:22:03;;;;;;;8.82;5.95;;;28.60;70.10;;;;;;5021744;28;20040;-72
2022/08/06 04:24:31;;;;;;;6.63;5.13;;;28.60;70.20;;;;;;5039118;28;20151;-73
2022/08/06 04:27:04;;;;;;;5.50;4.82;;;28.60;70.50;;;;;;5022260;28;20139;-73
2022/08/06 04:29:35;;;;;;;7.15;5.22;;;28.60;70.30;;;;;;5038673;28;20051;-73
2022/08/06 04:32:05;;;;;;;7.22;5.00;;;28.70;70.50;;;;;;5055092;28;20056;-72
2022/08/06 04:34:34;;;;;;;6.65;4.95;;;28.70;70.40;;;;;;5054193;28;20156;-72
2022/08/06 04:37:02;;;;;;;7.65;4.82;;;28.80;70.40;;;;;;5054946;28;20082;-75
2022/08/06 04:39:31;;;;;;;9.13;4.55;;;28.90;70.30;;;;;;5055339;28;20084;-72
2022/08/06 04:41:59;;;;;;;6.68;5.05;;;28.90;70.10;;;;;;5071423;28;20040;-72
2022/08/06 04:44:27;;;;;;;8.32;4.63;;;29.00;70.20;;;;;;5055076;28;20036;-72
2022/08/06 04:46:57;;;;;;;9.38;4.45;;;29.10;70.20;;;;;;5071485;28;20087;-73
2022/08/06 04:49:25;;;;;;;6.38;4.47;;;29.10;70.00;;;;;;5054726;28;20056;-73
2022/08/06 04:51:52;;;;;;;9.80;4.75;;;29.20;70.00;;;;;;5022120;28;20064;-71
2022/08/06 04:54:20;;;;;;;6.20;4.00;;;29.30;69.90;;;;;;5071421;28;20106;-71
2022/08/06 04:56:48;;;;;;;7.10;4.55;;;29.50;69.90;;;;;;5054854;28;20037;-72
2022/08/06 04:59:16;;;;;;;5.97;4.32;;;29.60;69.90;;;;;;5072565;28;20053;-72
2022/08/06 05:01:43;;;;;;;6.60;4.38;;;29.70;69.60;;;;;;5021534;28;20045;-72
2022/08/06 05:04:11;;;;;;;5.03;4.20;;;29.90;69.60;;;;;;5054624;28;20071;-72
2022/08/06 05:06:54;;;;;;;7.80;4.55;;;29.90;69.50;;;;;;5054784;28;20044;-72
2022/08/06 05:09:26;;;;;;;5.82;3.97;;;30.10;69.50;;;;;;5038097;28;20126;-72
2022/08/06 05:12:05;;;;;;;7.18;4.47;;;30.30;69.50;;;;;;5054654;28;20044;-72
2022/08/06 05:14:37;;;;;;;4.53;4.10;;;30.40;69.20;;;;;;5063061;28;20093;-72
2022/08/06 05:17:09;;;;;;;5.38;3.55;;;30.50;69.00;;;;;;5074402;28;20044;-72
2022/08/06 05:19:43;;;;;;;8.00;4.95;;;30.60;69.00;;;;;;5074748;28;20051;-72
2022/08/06 05:22:15;;;;;;;5.72;3.92;;;30.80;68.80;;;;;;5074264;28;20093;-72
2022/08/06 05:24:43;;;;;;;5.57;4.03;;;30.90;69.30;;;;;;5057925;28;20048;-73
2022/08/06 05:27:11;;;;;;;6.63;4.00;;;31.00;68.50;;;;;;5057533;28;20074;-72
2022/08/06 05:29:40;;;;;;;3.92;3.47;;;31.10;68.50;;;;;;5057729;28;20564;-72
2022/08/06 05:32:08;;;;;;;5.28;3.88;;;31.30;68.30;;;;;;5034010;28;20110;-72
2022/08/06 05:34:35;;;;;;;5.78;3.50;;;31.30;68.10;;;;;;5070919;28;20131;-72
2022/08/06 05:37:03;;;;;;;7.63;4.45;;;31.40;67.90;;;;;;5057374;28;20048;-72
2022/08/06 05:39:31;;;;;;;6.05;4.35;;;31.40;67.70;;;;;;5073867;28;20079;-73
2022/08/06 05:41:58;;;;;;;4.55;3.30;;;31.40;67.60;;;;;;5073528;28;20151;-72
2022/08/06 05:44:26;;;;;;;7.75;4.13;;;31.40;67.50;;;;;;5040557;28;20048;-72
2022/08/06 05:47:05;;;;;;;6.30;3.80;;;31.40;67.00;;;;;;5073718;28;20128;-72
2022/08/06 05:49:46;;;;;;;4.63;4.00;;;31.30;67.20;;;;;;5056432;28;20157;-74
2022/08/06 05:52:30;;;;;;;4.82;3.83;;;31.30;67.20;;;;;;5073116;28;20052;-74
2022/08/06 05:55:04;;;;;;;6.25;4.18;;;31.50;67.00;;;;;;5073613;28;20086;-71
2022/08/06 05:57:37;;;;;;;11.70;4.07;;;31.60;66.50;;;;;;5073748;28;20032;-72
2022/08/06 06:00:10;;;;;;;6.15;4.13;;;31.80;66.40;;;;;;5056744;28;20101;-74
2022/08/06 06:02:45;;;;;;;6.55;3.78;;;31.90;66.10;;;;;;5056965;28;20518;-73
2022/08/06 06:05:14;;;;;;;9.05;5.55;;;32.10;65.80;;;;;;5057192;28;20106;-72
2022/08/06 06:07:42;;;;;;;8.63;4.28;;;32.20;65.60;;;;;;5073465;28;20050;-72
2022/08/06 06:10:12;;;;;;;5.10;3.88;;;32.40;65.00;;;;;;5039429;28;20040;-72
2022/08/06 06:12:41;;;;;;;12.23;4.78;;;32.50;64.50;;;;;;5073208;28;20040;-73
2022/08/06 06:15:13;;;;;;;8.73;3.85;;;32.60;64.60;;;;;;5040361;28;20056;-73
2022/08/06 06:18:15;;;;;;;5.90;4.00;;;32.70;64.40;;;;;;5073140;28;20048;-72
2022/08/06 06:21:31;;;;;;;4.82;3.38;;;32.90;64.30;;;;;;5089973;28;20505;-72
2022/08/06 06:24:20;;;;;;;6.85;3.92;;;33.00;63.90;;;;;;5032353;28;20040;-73
2022/08/06 06:27:01;;;;;;;4.97;3.60;;;33.20;63.90;;;;;;5052860;28;20056;-73
2022/08/06 06:29:35;;;;;;;5.38;3.63;;;33.30;63.90;;;;;;5053489;28;20059;-71
2022/08/06 06:32:21;;;;;;;4.88;4.30;;;33.40;63.70;;;;;;5069498;28;20044;-74
2022/08/06 06:35:16;;;;;;;5.18;4.30;;;33.60;63.70;;;;;;5052658;28;20158;-72
2022/08/06 06:38:07;;;;;;;6.70;4.10;;;33.70;63.50;;;;;;5070739;28;20506;-72
2022/08/06 06:40:42;;;;;;;6.65;4.13;;;33.80;63.30;;;;;;5070574;28;20449;-72
2022/08/06 06:43:16;;;;;;;;;;;33.90;63.30;;;;;;5037254;28;20401;-72
2022/08/06 06:46:07;;;;;;;6.70;4.18;;;34.00;62.90;;;;;;5069372;28;19932;-73
2022/08/06 06:48:44;;;;;;;6.10;4.22;;;34.10;62.90;;;;;;5036303;28;20048;-72
2022/08/06 06:51:40;;;;;;;4.90;4.10;;;34.20;62.70;;;;;;5052890;28;20049;-72
2022/08/06 06:54:10;;;;;;;;;;;34.30;62.50;;;;;;5052075;28;20052;-72
2022/08/06 06:56:43;;;;;;;6.22;4.32;;;34.40;62.40;;;;;;5036112;28;19924;-72
2022/08/06 06:59:29;;;;;;;9.80;5.32;;;34.50;62.30;;;;;;5084260;28;20059;-72
2022/08/06 07:01:57;;;;;;;;;;;34.50;62.10;;;;;;5043388;28;20072;-75
2022/08/06 07:04:26;;;;;;;9.35;5.07;;;34.60;62.30;;;;;;5038884;28;19925;-72
2022/08/06 07:06:57;;;;;;;6.35;4.85;;;34.70;62.40;;;;;;5066705;28;20041;-72
2022/08/06 07:09:28;;;;;;;5.43;3.88;;;34.80;61.80;;;;;;5042859;28;20847;-72
2022/08/06 07:11:58;;;;;;;10.60;4.13;;;34.80;61.30;;;;;;5085849;28;20127;-77
2022/08/06 07:14:28;;;;;;;4.43;3.95;;;34.90;60.90;;;;;;5093281;28;20131;-71
2022/08/06 07:16:58;;;;;;;6.22;5.25;;;35.00;60.30;;;;;;5062641;28;20044;-71
2022/08/06 07:19:26;;;;;;;5.15;4.53;;;35.00;60.80;;;;;;5072356;28;20059;-72
2022/08/06 07:21:55;;;;;;;5.35;4.70;;;35.00;60.70;;;;;;5055761;28;20080;-72
2022/08/06 07:24:24;;;;;;;8.50;4.47;;;35.00;60.80;;;;;;5039417;28;20131;-72
2022/08/06 07:26:57;;;;;;;8.48;4.63;;;35.10;60.90;;;;;;5055252;28;20067;-72
2022/08/06 07:29:26;;;;;;;8.85;4.40;;;35.10;60.20;;;;;;5092748;28;20044;-72
2022/08/06 07:31:56;;;;;;;5.72;4.15;;;35.20;60.40;;;;;;5093036;28;20040;-73
2022/08/06 07:34:25;;;;;;;5.18;4.00;;;35.20;60.60;;;;;;5054960;28;20084;-73
2022/08/06 07:36:54;;;;;;;5.90;3.92;;;35.30;61.20;;;;;;5055595;28;20041;-72
2022/08/06 07:39:28;;;;;;;5.30;4.00;;;35.30;61.50;;;;;;5055342;28;20110;-72
2022/08/06 07:42:00;;;;;;;6.63;4.05;;;35.40;61.40;;;;;;5054900;28;20083;-76
2022/08/06 07:44:30;;;;;;;6.30;3.92;;;35.40;61.30;;;;;;5058245;28;20472;-72
2022/08/06 07:47:00;;;;;;;5.57;4.10;;;35.30;61.10;;;;;;5073833;28;20047;-74
2022/08/06 07:49:36;;;;;;;6.13;4.10;;;35.20;61.50;;;;;;5055454;28;20140;-73
2022/08/06 07:52:05;;;;;;;4.68;3.40;;;35.10;61.20;;;;;;5038508;28;20063;-76
2022/08/06 07:54:34;;;;;;;5.60;5.03;;;35.20;61.70;;;;;;5037932;28;20145;-72
2022/08/06 07:57:03;;;;;;;6.35;4.38;;;35.30;62.20;;;;;;5073290;28;20056;-72
2022/08/06 07:59:32;;;;;;;5.03;3.75;;;35.20;62.10;;;;;;5074714;28;20113;-72
2022/08/06 08:02:02;;;;;;;5.50;3.97;;;35.40;62.10;;;;;;5078655;28;20033;-72
2022/08/06 08:07:18;;;;;;;5.78;4.45;;;35.60;62.40;;;;;;5037927;28;20050;-72
2022/08/06 08:09:47;;;;;;;5.57;3.97;;;35.60;63.50;;;;;;5058159;28;20040;-73
2022/08/06 08:12:18;;;;;;;4.90;4.13;;;35.60;63.60;;;;;;5055349;28;20044;-73
2022/08/06 08:14:48;;;;;;;5.10;4.25;;;35.50;64.20;;;;;;5091629;28;20493;-74
2022/08/06 08:17:16;;;;;;;5.85;4.05;;;35.60;64.20;;;;;;5054870;28;20044;-73
2022/08/06 08:19:44;;;;;;;4.95;3.97;;;35.50;64.50;;;;;;5054276;28;20044;-72
2022/08/06 08:22:15;;;;;;;6.45;4.40;;;35.50;64.80;;;;;;5054227;28;20045;-73
2022/08/06 08:24:45;;;;;;;5.40;4.15;;;35.40;65.50;;;;;;5054696;28;20135;-72
2022/08/06 08:27:14;;;;;;;4.82;4.05;;;35.30;66.50;;;;;;5038776;28;20147;-71
2022/08/06 08:29:42;;;;;;;5.93;4.45;;;35.20;66.50;;;;;;5057801;28;20040;-72
2022/08/06 08:32:10;;;;;;;5.72;4.88;;;35.30;66.40;;;;;;5055101;28;20052;-74
2022/08/06 08:34:37;;;;;;;6.70;4.30;;;35.30;68.30;;;;;;5054377;28;20055;-72
2022/08/06 08:37:05;;;;;;;4.25;3.85;;;35.40;68.20;;;;;;5058574;28;20048;-72
2022/08/06 08:39:33;;;;;;;6.95;4.47;;;35.40;68.50;;;;;;5085453;28;20043;-74
2022/08/06 08:42:10;;;;;;;10.45;4.50;;;35.50;67.60;;;;;;5090067;28;20090;-73
2022/08/06 08:44:40;;;;;;;5.10;4.60;;;35.20;68.20;;;;;;5038160;28;20092;-73
2022/08/06 08:47:09;;;;;;;5.25;3.78;;;35.20;68.20;;;;;;5071728;28;20052;-73
2022/08/06 08:49:46;;;;;;;5.38;4.38;;;35.10;68.90;;;;;;5053803;28;20380;-73
2022/08/06 08:52:19;;;;;;;5.25;4.63;;;35.10;69.50;;;;;;5071096;28;20785;-74
2022/08/06 08:54:51;;;;;;;4.85;4.05;;;35.10;69.60;;;;;;5054159;28;20090;-73
2022/08/06 08:57:21;;;;;;;5.65;4.60;;;35.30;69.70;;;;;;5064487;28;20049;-70
2022/08/06 08:59:49;;;;;;;6.35;4.00;;;35.30;69.20;;;;;;5057496;28;20051;-72
2022/08/06 09:02:18;;;;;;;4.43;4.03;;;35.30;69.20;;;;;;5061873;28;20063;-74
2022/08/06 09:04:45;;;;;;;5.20;3.97;;;35.20;69.40;;;;;;5036345;28;20047;-75
2022/08/06 09:07:13;;;;;;;5.38;3.97;;;35.30;69.30;;;;;;5036772;28;20048;-73
2022/08/06 09:09:41;;;;;;;5.22;4.43;;;35.40;69.60;;;;;;5070981;28;20037;-73
2022/08/06 09:12:09;;;;;;;5.78;4.38;;;35.50;69.60;;;;;;5051844;28;20521;-73
2022/08/06 09:14:38;;;;;;;6.35;3.67;;;35.50;70.10;;;;;;5052878;28;20055;-74
2022/08/06 09:17:06;;;;;;;4.45;3.72;;;35.50;70.10;;;;;;5053606;28;20044;-73
2022/08/06 09:19:34;;;;;;;4.55;3.55;;;35.50;69.70;;;;;;5053270;28;20040;-72
2022/08/06 09:22:03;;;;;;;6.30;3.97;;;35.50;69.60;;;;;;5053461;28;20491;-72
2022/08/06 09:24:32;;;;;;;7.20;4.03;;;35.40;70.10;;;;;;5037235;28;20048;-72
2022/08/06 09:27:10;;;;;;;7.18;3.72;;;35.50;70.90;;;;;;5053821;28;20094;-74
2022/08/06 09:29:49;;;;;;;5.25;4.18;;;35.50;71.20;;;;;;5037809;28;20396;-73
2022/08/06 09:32:36;;;;;;;4.35;3.50;;;35.60;71.20;;;;;;5053777;28;20052;-74
2022/08/06 09:35:19;;;;;;;5.13;4.15;;;35.60;70.80;;;;;;5037837;28;20048;-72
2022/08/06 09:37:49;;;;;;;4.30;3.90;;;35.50;70.60;;;;;;5071676;28;20040;-72
2022/08/06 09:40:19;;;;;;;8.10;4.82;;;35.40;70.60;;;;;;5071525;28;20151;-71
2022/08/06 09:42:50;;;;;;;7.32;4.07;;;35.40;71.10;;;;;;5053918;28;20499;-72
2022/08/06 09:45:20;;;;;;;6.15;4.13;;;35.40;70.80;;;;;;5054146;28;20052;-72
2022/08/06 09:48:02;;;;;;;7.80;4.75;;;35.40;70.60;;;;;;5053706;28;20059;-72
2022/08/06 09:50:41;;;;;;;7.95;5.43;;;35.30;70.50;;;;;;5071668;28;20069;-71
2022/08/06 09:53:10;;;;;;;5.32;3.92;;;35.40;70.20;;;;;;4889947;28;20667;-70
2022/08/06 09:55:37;;;;;;;4.68;3.78;;;35.40;69.80;;;;;;4766496;28;20044;-74
2022/08/06 09:58:06;;;;;;;4.40;3.40;;;35.40;69.50;;;;;;5049539;28;20130;-72
2022/08/06 10:00:36;;;;;;;4.00;3.33;;;35.50;69.60;;;;;;5031223;28;20642;-74
2022/08/06 10:03:09;;;;;;;5.68;3.80;;;35.40;69.20;;;;;;5066679;28;20151;-71
2022/08/06 10:05:37;;;;;;;4.95;3.92;;;35.40;69.20;;;;;;5083196;28;20043;-73
2022/08/06 10:08:08;;;;;;;4.32;3.50;;;35.40;69.60;;;;;;5066975;28;20093;-74
2022/08/06 10:10:46;;;;;;;3.58;2.80;;;35.30;69.30;;;;;;5068211;28;20114;-72
2022/08/06 10:13:26;;;;;;;3.40;3.08;;;35.40;69.50;;;;;;5049831;28;20100;-76
2022/08/06 10:15:56;;;;;;;3.85;3.45;;;35.20;69.90;;;;;;5064052;28;20381;-72
2022/08/06 10:18:46;;;;;;;5.38;3.40;;;35.10;69.80;;;;;;5047542;28;20059;-72
2022/08/06 10:21:17;;;;;;;5.63;3.22;;;35.10;69.80;;;;;;5030663;28;20044;-72
2022/08/06 10:23:48;;;;;;;5.40;3.10;;;35.20;69.50;;;;;;5081189;28;20039;-73
2022/08/06 10:26:30;;;;;;;3.72;3.28;;;35.10;69.40;;;;;;5033484;28;20084;-73
2022/08/06 10:29:06;;;;;;;5.72;4.47;;;35.00;69.00;;;;;;5067678;28;20059;-73
2022/08/06 10:31:36;;;;;;;5.28;3.83;;;35.10;69.00;;;;;;5071605;28;20052;-71
2022/08/06 10:34:10;;;;;;;5.55;2.85;;;35.10;68.70;;;;;;5088258;28;20047;-71
2022/08/06 10:36:44;;;;;;;4.53;3.20;;;35.00;68.90;;;;;;5050047;28;20500;-75
2022/08/06 10:39:14;;;;;;;4.18;2.70;;;35.00;69.00;;;;;;5050831;28;20046;-70
2022/08/06 10:41:43;;;;;;;5.75;3.00;;;34.90;68.60;;;;;;5070927;28;20106;-71
2022/08/06 10:44:12;;;;;;;4.60;3.08;;;34.70;68.50;;;;;;5047312;28;20165;-70
2022/08/06 10:46:40;;;;;;;2.92;2.28;;;34.80;68.20;;;;;;5071593;28;20131;-72
2022/08/06 10:49:09;;;;;;;3.60;3.00;;;34.60;68.30;;;;;;5068875;28;20036;-70
2022/08/06 10:51:37;;;;;;;2.92;2.55;;;34.70;68.20;;;;;;5052669;28;20051;-70
2022/08/06 10:54:05;;;;;;;4.15;2.65;;;34.60;67.80;;;;;;5071820;28;20128;-69
2022/08/06 10:56:33;;;;;;;3.45;2.78;;;34.50;67.60;;;;;;5069672;28;20454;-70
2022/08/06 10:59:02;;;;;;;4.50;2.70;;;34.60;67.80;;;;;;5056405;28;20040;-70
2022/08/06 11:02:03;;;;;;;3.10;2.63;;;34.60;67.40;;;;;;5086910;28;20064;-70
2022/08/06 11:04:52;;;;;;;5.75;3.03;;;34.60;67.60;;;;;;5038774;28;20050;-71
2022/08/06 11:07:20;;;;;;;4.55;3.75;;;34.70;67.40;;;;;;5080660;28;20498;-70
2022/08/06 11:09:50;;;;;;;8.35;3.75;;;34.80;67.30;;;;;;5056245;28;20040;-70
2022/08/06 11:12:43;;;;;;;4.18;3.30;;;34.70;66.60;;;;;;5053071;28;20040;-70
2022/08/06 11:15:11;;;;;;;9.30;4.40;;;34.70;66.50;;;;;;5067288;28;20048;-71
2022/08/06 11:17:50;;;;;;;5.05;4.53;;;34.80;66.50;;;;;;5079418;28;20050;-70
2022/08/06 11:20:33;;;;;;;5.63;3.17;;;34.90;66.90;;;;;;5080960;28;20040;-74
2022/08/06 11:23:20;;;;;;;7.43;4.43;;;34.80;67.20;;;;;;5086103;28;20131;-70
2022/08/06 11:25:57;;;;;;;6.45;4.50;;;34.90;67.20;;;;;;5058712;28;20426;-71
2022/08/06 11:28:30;;;;;;;5.78;3.70;;;34.80;67.20;;;;;;5071733;28;20520;-68
2022/08/06 11:31:00;;;;;;;4.43;3.10;;;34.80;66.40;;;;;;5044694;28;20051;-72
2022/08/06 11:33:34;;;;;;;5.53;3.75;;;35.00;66.90;;;;;;5035896;28;20071;-70
2022/08/06 11:36:24;;;;;;;4.53;3.47;;;35.00;66.50;;;;;;5051338;28;20056;-70
2022/08/06 11:38:55;;;;;;;5.28;3.80;;;35.00;65.50;;;;;;5067288;28;20072;-69
2022/08/06 11:41:29;;;;;;;6.18;4.88;;;35.00;65.70;;;;;;5054746;28;20066;-69
2022/08/06 11:44:00;;;;;;;4.53;3.90;;;35.10;65.20;;;;;;5090205;28;20040;-72
2022/08/06 11:46:59;;;;;;;5.60;3.90;;;35.00;64.90;;;;;;5074556;28;20155;-69
2022/08/06 11:49:44;;;;;;;5.80;4.50;;;35.00;64.60;;;;;;5058268;28;20109;-70
2022/08/06 11:52:31;;;;;;;8.38;5.60;;;35.00;64.30;;;;;;5072141;28;20048;-70
2022/08/06 11:55:06;;;;;;;10.10;4.70;;;35.00;64.00;;;;;;5056734;28;20048;-70
2022/08/06 11:57:34;;;;;;;6.18;4.72;;;35.00;64.10;;;;;;5083770;28;20834;-71
2022/08/06 12:00:07;;;;;;;7.90;5.15;;;35.00;63.90;;;;;;5073392;28;20043;-70
2022/08/06 12:02:41;;;;;;;7.97;5.35;;;35.00;64.60;;;;;;5053470;28;20044;-70
2022/08/06 12:05:33;;;;;;;7.35;4.30;;;34.90;64.40;;;;;;5073552;28;20050;-71
2022/08/06 12:08:27;;;;;;;7.65;5.03;;;34.80;64.50;;;;;;5026997;28;20552;-70
2022/08/06 12:11:24;;;;;;;7.00;5.40;;;34.70;65.30;;;;;;5038593;28;20619;-76
2022/08/06 12:13:52;;;;;;;9.88;6.05;;;34.70;64.50;;;;;;5053030;28;20079;-70
2022/08/06 12:16:28;;;;;;;7.40;5.30;;;34.60;64.70;;;;;;5070279;28;20068;-70
2022/08/06 12:18:56;;;;;;;6.15;4.70;;;34.70;64.50;;;;;;5051845;28;20056;-70
2022/08/06 12:21:24;;;;;;;6.55;5.00;;;34.70;64.50;;;;;;5069415;28;20436;-72
2022/08/06 12:23:53;;;;;;;7.00;5.07;;;34.80;64.60;;;;;;5071377;28;20044;-70
2022/08/06 12:26:22;;;;;;;7.13;5.93;;;34.70;64.40;;;;;;5037264;28;20159;-69
2022/08/06 12:28:50;;;;;;;6.40;5.75;;;34.80;63.90;;;;;;5088017;28;20067;-70
2022/08/06 12:31:32;;;;;;;7.15;6.32;;;34.80;64.10;;;;;;5069439;28;20098;-70
2022/08/06 12:34:00;;;;;;;8.60;5.50;;;34.70;64.00;;;;;;5089319;28;20052;-71
2022/08/06 12:36:30;;;;;;;6.38;5.22;;;34.60;64.30;;;;;;5070609;28;20493;-72
2022/08/06 12:39:00;;;;;;;9.20;5.63;;;34.60;64.60;;;;;;5052327;28;20044;-70
2022/08/06 12:41:34;;;;;;;5.55;4.97;;;34.60;64.60;;;;;;5065750;28;20040;-71
2022/08/06 12:44:02;;;;;;;5.70;5.15;;;34.60;64.50;;;;;;5053374;28;20048;-70
2022/08/06 12:46:30;;;;;;;5.95;4.70;;;34.60;64.30;;;;;;5064795;28;20063;-70
2022/08/06 12:48:59;;;;;;;6.55;4.72;;;34.60;63.50;;;;;;5075735;28;20072;-69
2022/08/06 12:51:28;;;;;;;5.60;4.13;;;34.60;64.00;;;;;;5055295;28;20055;-70
2022/08/06 12:54:01;;;;;;;4.20;3.42;;;34.50;63.80;;;;;;5037282;28;20462;-69
2022/08/06 12:56:31;;;;;;;6.72;4.35;;;34.50;64.00;;;;;;5069833;28;20048;-69
2022/08/06 12:59:02;;;;;;;7.03;4.90;;;34.50;63.80;;;;;;5057561;28;20056;-70
2022/08/06 13:01:33;;;;;;;11.98;5.32;;;34.50;64.30;;;;;;5052772;28;20044;-71
2022/08/06 13:04:04;;;;;;;6.25;5.65;;;34.40;63.40;;;;;;5063961;28;20045;-70
2022/08/06 13:06:34;;;;;;;6.35;5.68;;;34.50;62.70;;;;;;5068870;28;20040;-69
2022/08/06 13:09:02;;;;;;;7.93;5.75;;;34.50;63.50;;;;;;5054688;28;20516;-70
2022/08/06 13:11:31;;;;;;;7.15;5.75;;;34.50;64.10;;;;;;5040614;28;20490;-70
2022/08/06 13:14:07;;;;;;;9.85;5.88;;;34.60;62.80;;;;;;5056742;28;20036;-70
2022/08/06 13:16:44;;;;;;;8.70;6.35;;;34.60;62.00;;;;;;5059669;28;20187;-72
2022/08/06 13:19:20;;;;;;;7.35;5.85;;;34.60;62.80;;;;;;5058395;28;20043;-70